createdAt,value
2017-08-26T00:00:10.219Z,955.86
2017-08-26T00:01:10.213Z,955.92
2017-08-26T00:02:10.213Z,955.95
2017-08-26T00:03:10.208Z,956
2017-08-26T00:04:10.207Z,955.93
2017-08-26T00:05:10.198Z,955.97
2017-08-26T00:06:10.196Z,955.94
2017-08-26T00:07:10.190Z,955.94
2017-08-26T00:08:10.186Z,955.95
2017-08-26T00:09:10.183Z,955.95
2017-08-26T00:10:10.178Z,955.93
2017-08-26T00:11:10.174Z,955.96
2017-08-26T00:12:10.171Z,955.92
2017-08-26T00:13:10.200Z,955.92
2017-08-26T00:14:10.161Z,955.91
2017-08-26T00:15:10.157Z,955.96
2017-08-26T00:16:10.153Z,955.95
2017-08-26T00:17:10.148Z,955.94
2017-08-26T00:18:10.145Z,955.94
2017-08-26T00:19:10.160Z,955.9
2017-08-26T00:20:10.137Z,955.88
2017-08-26T00:21:10.131Z,955.81
2017-08-26T00:22:10.135Z,955.86
2017-08-26T00:23:10.121Z,955.86
2017-08-26T00:24:10.117Z,955.85
2017-08-26T00:25:10.114Z,955.86
2017-08-26T00:26:10.110Z,955.84
2017-08-26T00:27:10.106Z,955.85
2017-08-26T00:28:10.111Z,955.84
2017-08-26T00:29:10.098Z,955.82
2017-08-26T00:30:10.091Z,955.82
2017-08-26T00:31:10.087Z,955.81
2017-08-26T00:32:10.101Z,955.79
2017-08-26T00:33:10.080Z,955.8
2017-08-26T00:34:10.072Z,955.83
2017-08-26T00:35:10.069Z,955.82
2017-08-26T00:36:10.066Z,955.84
2017-08-26T00:37:10.063Z,955.88
2017-08-26T00:38:10.054Z,955.9
2017-08-26T00:39:10.050Z,955.94
2017-08-26T00:40:10.046Z,955.93
2017-08-26T00:41:10.052Z,955.88
2017-08-26T00:42:10.037Z,955.88
2017-08-26T00:43:10.033Z,955.89
2017-08-26T00:44:10.028Z,955.9
2017-08-26T00:45:10.024Z,955.92
2017-08-26T00:46:10.018Z,955.94
2017-08-26T00:47:10.014Z,955.91
2017-08-26T00:48:10.010Z,955.95
2017-08-26T00:49:10.004Z,955.91
2017-08-26T00:50:09.999Z,955.87
2017-08-26T00:51:10.000Z,955.86
2017-08-26T00:52:10.008Z,955.86
2017-08-26T00:53:09.984Z,955.88
2017-08-26T00:54:09.984Z,955.83
2017-08-26T00:55:09.976Z,955.83
2017-08-26T00:56:09.972Z,955.87
2017-08-26T00:57:09.967Z,955.83
2017-08-26T00:58:09.986Z,955.87
2017-08-26T00:59:09.958Z,955.78
2017-08-26T01:00:09.951Z,955.83
2017-08-26T01:01:09.951Z,955.82
2017-08-26T01:02:09.944Z,955.8
2017-08-26T01:03:09.940Z,955.8
2017-08-26T01:04:09.935Z,955.77
2017-08-26T01:05:09.930Z,955.77
2017-08-26T01:06:09.929Z,955.7
2017-08-26T01:07:09.920Z,955.67
2017-08-26T01:08:09.914Z,955.72
2017-08-26T01:09:09.910Z,955.68
2017-08-26T01:10:09.921Z,955.69
2017-08-26T01:11:09.901Z,955.7
2017-08-26T01:12:09.898Z,955.71
2017-08-26T01:13:09.892Z,955.76
2017-08-26T01:14:09.888Z,955.79
2017-08-26T01:15:09.907Z,955.8
2017-08-26T01:16:09.877Z,955.84
2017-08-26T01:17:09.874Z,955.81
2017-08-26T01:18:09.872Z,955.82
2017-08-26T01:19:09.863Z,955.81
2017-08-26T01:20:09.860Z,955.8
2017-08-26T01:21:09.854Z,955.8
2017-08-26T01:22:09.850Z,955.83
2017-08-26T01:23:09.845Z,955.85
2017-08-26T01:24:09.840Z,955.87
2017-08-26T01:25:09.835Z,955.84
2017-08-26T01:26:09.831Z,955.86
2017-08-26T01:27:09.826Z,955.87
2017-08-26T01:28:09.824Z,955.82
2017-08-26T01:29:09.817Z,955.8
2017-08-26T01:30:09.813Z,955.78
2017-08-26T01:31:09.809Z,955.78
2017-08-26T01:32:09.805Z,955.81
2017-08-26T01:33:09.799Z,955.85
2017-08-26T01:34:09.793Z,955.86
2017-08-26T01:35:09.789Z,955.87
2017-08-26T01:36:09.784Z,955.88
2017-08-26T01:37:09.781Z,955.91
2017-08-26T01:38:09.789Z,955.9
2017-08-26T01:39:09.773Z,955.85
2017-08-26T01:40:09.767Z,955.92
2017-08-26T01:41:09.762Z,955.94
2017-08-26T01:42:09.759Z,955.99
2017-08-26T01:43:09.751Z,955.99
2017-08-26T01:44:09.757Z,955.99
2017-08-26T01:45:09.743Z,956.02
2017-08-26T01:46:09.742Z,956.07
2017-08-26T01:47:09.748Z,956.01
2017-08-26T01:48:09.730Z,956
2017-08-26T01:49:09.726Z,956.02
2017-08-26T01:50:09.721Z,956.08
2017-08-26T01:51:09.716Z,956.06
2017-08-26T01:52:09.724Z,956.09
2017-08-26T01:53:09.706Z,956.14
2017-08-26T01:54:09.701Z,956.13
2017-08-26T01:55:09.697Z,956.15
2017-08-26T01:56:09.693Z,956.12
2017-08-26T01:57:09.690Z,956.1
2017-08-26T01:58:09.683Z,956.07
2017-08-26T01:59:09.679Z,956.06
2017-08-26T02:00:09.674Z,956.12
2017-08-26T02:01:09.730Z,956.12
2017-08-26T02:02:09.665Z,956.11
2017-08-26T02:03:09.709Z,956.13
2017-08-26T02:04:09.656Z,956.14
2017-08-26T02:05:09.675Z,956.16
2017-08-26T02:06:09.646Z,956.19
2017-08-26T02:07:09.643Z,956.18
2017-08-26T02:08:09.639Z,956.2
2017-08-26T02:09:09.655Z,956.16
2017-08-26T02:10:09.629Z,956.17
2017-08-26T02:11:09.624Z,956.15
2017-08-26T02:12:09.622Z,956.15
2017-08-26T02:13:09.617Z,956.14
2017-08-26T02:14:09.612Z,956.18
2017-08-26T02:15:09.608Z,956.12
2017-08-26T02:16:09.602Z,956.09
2017-08-26T02:17:09.598Z,956.08
2017-08-26T02:18:09.607Z,956.15
2017-08-26T02:19:09.588Z,956.14
2017-08-26T02:20:09.584Z,956.2
2017-08-26T02:21:09.582Z,956.2
2017-08-26T02:22:09.576Z,956.17
2017-08-26T02:23:09.573Z,956.16
2017-08-26T02:24:09.567Z,956.13
2017-08-26T02:25:09.563Z,956.06
2017-08-26T02:26:09.558Z,956.03
2017-08-26T02:27:09.574Z,956.05
2017-08-26T02:28:09.564Z,956
2017-08-26T02:29:09.550Z,955.99
2017-08-26T02:30:09.542Z,955.95
2017-08-26T02:31:09.536Z,955.98
2017-08-26T02:32:09.534Z,955.97
2017-08-26T02:33:09.529Z,955.93
2017-08-26T02:34:09.525Z,955.91
2017-08-26T02:35:09.519Z,955.92
2017-08-26T02:36:09.515Z,955.89
2017-08-26T02:37:09.521Z,955.93
2017-08-26T02:38:09.508Z,955.93
2017-08-26T02:39:09.502Z,955.95
2017-08-26T02:40:09.497Z,955.94
2017-08-26T02:41:09.514Z,955.95
2017-08-26T02:42:09.490Z,955.91
2017-08-26T02:43:09.486Z,955.88
2017-08-26T02:44:09.482Z,955.88
2017-08-26T02:45:09.478Z,955.86
2017-08-26T02:46:09.474Z,955.87
2017-08-26T02:47:09.471Z,955.88
2017-08-26T02:48:09.466Z,955.9
2017-08-26T02:49:09.462Z,955.8
2017-08-26T02:50:09.457Z,955.8
2017-08-26T02:51:09.453Z,955.88
2017-08-26T02:52:09.451Z,955.9
2017-08-26T02:53:09.446Z,955.9
2017-08-26T02:54:09.458Z,955.84
2017-08-26T02:55:09.437Z,955.84
2017-08-26T02:56:09.431Z,955.8
2017-08-26T02:57:09.428Z,955.79
2017-08-26T02:58:09.427Z,955.78
2017-08-26T02:59:09.421Z,955.77
2017-08-26T03:00:09.430Z,955.74
2017-08-26T03:01:09.412Z,955.73
2017-08-26T03:02:09.408Z,955.75
2017-08-26T03:03:09.411Z,955.74
2017-08-26T03:04:09.399Z,955.7
2017-08-26T03:05:09.396Z,955.66
2017-08-26T03:06:09.392Z,955.65
2017-08-26T03:07:09.388Z,955.66
2017-08-26T03:08:09.385Z,955.58
2017-08-26T03:09:09.380Z,955.55
2017-08-26T03:10:09.376Z,955.54
2017-08-26T03:11:09.391Z,955.51
2017-08-26T03:12:09.368Z,955.49
2017-08-26T03:13:09.368Z,955.41
2017-08-26T03:14:09.384Z,955.48
2017-08-26T03:15:09.357Z,955.4
2017-08-26T03:16:09.371Z,955.4
2017-08-26T03:17:09.348Z,955.42
2017-08-26T03:18:09.354Z,955.5
2017-08-26T03:19:09.339Z,955.5
2017-08-26T03:20:09.336Z,955.52
2017-08-26T03:21:09.332Z,955.51
2017-08-26T03:22:09.329Z,955.48
2017-08-26T03:23:09.324Z,955.45
2017-08-26T03:24:09.320Z,955.47
2017-08-26T03:25:09.317Z,955.4
2017-08-26T03:26:09.313Z,955.41
2017-08-26T03:27:09.324Z,955.38
2017-08-26T03:28:09.304Z,955.39
2017-08-26T03:29:09.299Z,955.33
2017-08-26T03:30:09.296Z,955.28
2017-08-26T03:31:09.293Z,955.29
2017-08-26T03:32:09.289Z,955.26
2017-08-26T03:33:09.284Z,955.27
2017-08-26T03:34:09.280Z,955.25
2017-08-26T03:35:09.297Z,955.25
2017-08-26T03:36:09.274Z,955.23
2017-08-26T03:37:09.269Z,955.21
2017-08-26T03:38:09.267Z,955.22
2017-08-26T03:39:09.260Z,955.27
2017-08-26T03:40:09.258Z,955.28
2017-08-26T03:41:09.252Z,955.27
2017-08-26T03:42:09.250Z,955.28
2017-08-26T03:43:09.247Z,955.37
2017-08-26T03:44:09.254Z,955.38
2017-08-26T03:45:09.256Z,955.46
2017-08-26T03:46:09.233Z,955.47
2017-08-26T03:47:09.231Z,955.51
2017-08-26T03:48:09.226Z,955.55
2017-08-26T03:49:09.223Z,955.62
2017-08-26T03:50:09.219Z,955.63
2017-08-26T03:51:09.214Z,955.68
2017-08-26T03:52:09.216Z,955.68
2017-08-26T03:53:09.207Z,955.69
2017-08-26T03:54:09.204Z,955.73
2017-08-26T03:55:09.199Z,955.74
2017-08-26T03:56:09.195Z,955.72
2017-08-26T03:57:09.193Z,955.74
2017-08-26T03:58:09.190Z,955.74
2017-08-26T03:59:09.184Z,955.78
2017-08-26T04:00:09.201Z,955.76
2017-08-26T04:01:09.175Z,955.77
2017-08-26T04:02:09.172Z,955.77
2017-08-26T04:03:09.168Z,955.76
2017-08-26T04:04:09.169Z,955.71
2017-08-26T04:05:09.162Z,955.68
2017-08-26T04:06:09.165Z,955.68
2017-08-26T04:07:09.153Z,955.72
2017-08-26T04:08:09.151Z,955.72
2017-08-26T04:09:09.147Z,955.67
2017-08-26T04:10:09.142Z,955.64
2017-08-26T04:11:09.139Z,955.62
2017-08-26T04:12:09.143Z,955.57
2017-08-26T04:13:09.131Z,955.53
2017-08-26T04:14:09.127Z,955.55
2017-08-26T04:15:09.123Z,955.54
2017-08-26T04:16:09.119Z,955.58
2017-08-26T04:17:09.116Z,955.57
2017-08-26T04:18:09.112Z,955.6
2017-08-26T04:19:09.124Z,955.63
2017-08-26T04:20:09.106Z,955.73
2017-08-26T04:21:09.115Z,955.78
2017-08-26T04:22:09.098Z,955.85
2017-08-26T04:23:09.096Z,955.85
2017-08-26T04:24:09.090Z,955.84
2017-08-26T04:25:09.088Z,955.78
2017-08-26T04:26:09.099Z,955.78
2017-08-26T04:27:09.081Z,955.78
2017-08-26T04:28:09.075Z,955.77
2017-08-26T04:29:09.077Z,955.77
2017-08-26T04:30:09.068Z,955.83
2017-08-26T04:31:09.065Z,955.86
2017-08-26T04:32:09.061Z,955.81
2017-08-26T04:33:09.057Z,955.82
2017-08-26T04:34:09.054Z,955.81
2017-08-26T04:35:09.050Z,955.81
2017-08-26T04:36:09.051Z,955.89
2017-08-26T04:37:09.043Z,955.95
2017-08-26T04:38:09.062Z,955.96
2017-08-26T04:39:09.034Z,955.95
2017-08-26T04:40:09.035Z,955.94
2017-08-26T04:41:09.028Z,955.97
2017-08-26T04:42:09.024Z,956
2017-08-26T04:43:09.020Z,956.06
2017-08-26T04:44:09.017Z,956.17
2017-08-26T04:45:09.013Z,956.22
2017-08-26T04:46:09.009Z,956.25
2017-08-26T04:47:09.018Z,956.28
2017-08-26T04:48:09.001Z,956.25
2017-08-26T04:49:08.998Z,956.32
2017-08-26T04:50:08.994Z,956.42
2017-08-26T04:51:09.008Z,956.52
2017-08-26T04:52:08.986Z,956.64
2017-08-26T04:53:08.982Z,956.68
2017-08-26T04:54:08.979Z,956.65
2017-08-26T04:55:08.977Z,956.62
2017-08-26T04:56:08.971Z,956.61
2017-08-26T04:57:08.967Z,956.73
2017-08-26T04:58:08.962Z,956.77
2017-08-26T04:59:08.968Z,956.78
2017-08-26T05:00:08.960Z,956.77
2017-08-26T05:01:08.951Z,956.83
2017-08-26T05:02:08.962Z,956.81
2017-08-26T05:03:08.944Z,956.7
2017-08-26T05:04:08.939Z,956.66
2017-08-26T05:05:08.935Z,956.67
2017-08-26T05:06:08.931Z,956.69
2017-08-26T05:07:08.929Z,956.59
2017-08-26T05:08:08.924Z,956.54
2017-08-26T05:09:08.920Z,956.58
2017-08-26T05:10:08.919Z,956.49
2017-08-26T05:11:08.914Z,956.44
2017-08-26T05:12:08.909Z,956.28
2017-08-26T05:13:08.905Z,956.23
2017-08-26T05:14:08.900Z,956.4
2017-08-26T05:15:08.898Z,956.49
2017-08-26T05:16:08.893Z,956.5
2017-08-26T05:17:08.891Z,956.41
2017-08-26T05:18:08.886Z,956.32
2017-08-26T05:19:09.083Z,956.37
2017-08-26T05:20:08.878Z,956.47
2017-08-26T05:21:08.874Z,956.56
2017-08-26T05:22:08.877Z,956.61
2017-08-26T05:23:08.865Z,956.55
2017-08-26T05:24:08.861Z,956.46
2017-08-26T05:25:08.863Z,956.32
2017-08-26T05:26:08.852Z,956.19
2017-08-26T05:27:08.851Z,956.08
2017-08-26T05:28:08.845Z,955.93
2017-08-26T05:29:08.842Z,955.88
2017-08-26T05:30:08.837Z,955.87
2017-08-26T05:31:08.835Z,955.85
2017-08-26T05:32:08.831Z,955.78
2017-08-26T05:33:08.826Z,955.75
2017-08-26T05:34:08.820Z,955.75
2017-08-26T05:35:08.817Z,955.77
2017-08-26T05:36:08.814Z,955.76
2017-08-26T05:37:08.809Z,955.74
2017-08-26T05:38:08.804Z,955.68
2017-08-26T05:39:08.801Z,955.67
2017-08-26T05:40:08.798Z,955.63
2017-08-26T05:41:08.792Z,955.6
2017-08-26T05:42:08.789Z,955.59
2017-08-26T05:43:08.786Z,955.61
2017-08-26T05:44:08.782Z,955.66
2017-08-26T05:45:08.777Z,955.66
2017-08-26T05:46:08.774Z,955.71
2017-08-26T05:47:08.771Z,955.71
2017-08-26T05:48:08.795Z,955.65
2017-08-26T05:49:08.790Z,955.66
2017-08-26T05:50:08.760Z,955.61
2017-08-26T05:51:08.755Z,955.54
2017-08-26T05:52:08.751Z,955.48
2017-08-26T05:53:08.748Z,955.5
2017-08-26T05:54:08.744Z,955.51
2017-08-26T05:55:08.742Z,955.47
2017-08-26T05:56:08.740Z,955.5
2017-08-26T05:57:08.735Z,955.52
2017-08-26T05:58:08.730Z,955.53
2017-08-26T05:59:08.729Z,955.57
2017-08-26T06:00:08.724Z,955.59
2017-08-26T06:01:08.721Z,955.61
2017-08-26T06:02:08.717Z,955.63
2017-08-26T06:03:08.714Z,955.73
2017-08-26T06:04:08.716Z,955.86
2017-08-26T06:05:08.706Z,955.86
2017-08-26T06:06:08.702Z,955.9
2017-08-26T06:07:08.700Z,955.9
2017-08-26T06:08:08.696Z,955.88
2017-08-26T06:09:08.693Z,955.92
2017-08-26T06:10:08.689Z,956.03
2017-08-26T06:11:08.687Z,956.12
2017-08-26T06:12:08.682Z,956.24
2017-08-26T06:13:08.680Z,956.34
2017-08-26T06:14:08.677Z,956.47
2017-08-26T06:15:08.673Z,956.52
2017-08-26T06:16:08.683Z,956.62
2017-08-26T06:17:08.665Z,956.86
2017-08-26T06:18:08.662Z,956.84
2017-08-26T06:19:08.658Z,956.68
2017-08-26T06:20:08.655Z,956.66
2017-08-26T06:21:08.651Z,956.66
2017-08-26T06:22:08.649Z,956.69
2017-08-26T06:23:08.645Z,956.73
2017-08-26T06:24:08.649Z,956.74
2017-08-26T06:25:08.638Z,956.72
2017-08-26T06:26:08.656Z,956.68
2017-08-26T06:27:08.632Z,956.67
2017-08-26T06:28:08.627Z,956.69
2017-08-26T06:29:08.625Z,956.69
2017-08-26T06:30:08.620Z,956.66
2017-08-26T06:31:08.629Z,956.6
2017-08-26T06:32:08.615Z,956.61
2017-08-26T06:33:08.610Z,956.58
2017-08-26T06:34:08.609Z,956.56
2017-08-26T06:35:08.605Z,956.57
2017-08-26T06:36:08.601Z,956.58
2017-08-26T06:37:08.597Z,956.57
2017-08-26T06:38:08.595Z,956.54
2017-08-26T06:39:08.590Z,956.52
2017-08-26T06:40:08.588Z,956.55
2017-08-26T06:41:08.585Z,956.56
2017-08-26T06:42:08.585Z,956.47
2017-08-26T06:43:08.578Z,956.47
2017-08-26T06:44:08.575Z,956.4
2017-08-26T06:45:08.571Z,956.35
2017-08-26T06:46:08.568Z,956.36
2017-08-26T06:47:08.564Z,956.33
2017-08-26T06:48:08.563Z,956.34
2017-08-26T06:49:08.561Z,956.32
2017-08-26T06:50:08.556Z,956.33
2017-08-26T06:51:08.553Z,956.34
2017-08-26T06:52:08.550Z,956.33
2017-08-26T06:53:08.549Z,956.31
2017-08-26T06:54:08.545Z,956.26
2017-08-26T06:55:08.565Z,956.24
2017-08-26T06:56:08.539Z,956.23
2017-08-26T06:57:08.549Z,956.2
2017-08-26T06:58:08.549Z,956.26
2017-08-26T06:59:08.535Z,956.32
2017-08-26T07:00:08.531Z,956.36
2017-08-26T07:01:08.617Z,956.28
2017-08-26T07:02:08.525Z,956.3
2017-08-26T07:03:08.522Z,956.29
2017-08-26T07:04:08.520Z,956.34
2017-08-26T07:05:08.518Z,956.36
2017-08-26T07:06:08.519Z,956.35
2017-08-26T07:07:08.514Z,956.38
2017-08-26T07:08:08.512Z,956.34
2017-08-26T07:09:08.509Z,956.35
2017-08-26T07:10:08.508Z,956.34
2017-08-26T07:11:08.506Z,956.31
2017-08-26T07:12:08.521Z,956.32
2017-08-26T07:13:08.501Z,956.37
2017-08-26T07:14:08.499Z,956.39
2017-08-26T07:15:08.499Z,956.44
2017-08-26T07:16:08.496Z,956.47
2017-08-26T07:17:08.494Z,956.52
2017-08-26T07:18:08.495Z,956.56
2017-08-26T07:19:08.491Z,956.6
2017-08-26T07:20:08.488Z,956.61
2017-08-26T07:21:08.486Z,956.67
2017-08-26T07:22:08.485Z,956.73
2017-08-26T07:23:08.485Z,956.78
2017-08-26T07:24:08.481Z,956.83
2017-08-26T07:25:08.479Z,956.95
2017-08-26T07:26:08.477Z,957
2017-08-26T07:27:08.473Z,957.1
2017-08-26T07:28:08.472Z,957.16
2017-08-26T07:29:08.471Z,957.19
2017-08-26T07:30:08.469Z,957.27
2017-08-26T07:31:08.468Z,957.3
2017-08-26T07:32:08.466Z,957.34
2017-08-26T07:33:08.468Z,957.36
2017-08-26T07:34:08.460Z,957.37
2017-08-26T07:35:08.458Z,957.32
2017-08-26T07:36:08.472Z,957.26
2017-08-26T07:37:08.454Z,957.25
2017-08-26T07:38:08.452Z,957.34
2017-08-26T07:39:08.448Z,957.36
2017-08-26T07:40:08.448Z,957.42
2017-08-26T07:41:08.444Z,957.39
2017-08-26T07:42:08.441Z,957.47
2017-08-26T07:43:08.439Z,957.53
2017-08-26T07:44:08.451Z,957.52
2017-08-26T07:45:08.434Z,957.35
2017-08-26T07:46:08.432Z,957.26
2017-08-26T07:47:08.436Z,957.18
2017-08-26T07:48:08.428Z,957.21
2017-08-26T07:49:08.425Z,957.28
2017-08-26T07:50:08.421Z,957.28
2017-08-26T07:51:08.420Z,957.27
2017-08-26T07:52:08.418Z,957.3
2017-08-26T07:53:08.414Z,957.25
2017-08-26T07:54:08.412Z,957.24
2017-08-26T07:55:08.408Z,957.24
2017-08-26T07:56:08.406Z,957.2
2017-08-26T07:57:08.404Z,957.2
2017-08-26T07:58:08.402Z,957.23
2017-08-26T07:59:08.399Z,957.28
2017-08-26T08:00:08.398Z,957.4
2017-08-26T08:01:08.395Z,957.49
2017-08-26T08:02:08.390Z,957.57
2017-08-26T08:03:08.389Z,957.58
2017-08-26T08:04:08.385Z,957.51
2017-08-26T08:05:08.382Z,957.36
2017-08-26T08:06:08.381Z,957.19
2017-08-26T08:07:08.378Z,956.99
2017-08-26T08:08:08.374Z,956.64
2017-08-26T08:09:08.372Z,956.02
2017-08-26T08:10:08.369Z,955.55
2017-08-26T08:11:08.365Z,955.47
2017-08-26T08:12:08.362Z,955.61
2017-08-26T08:13:08.360Z,955.81
2017-08-26T08:14:08.357Z,956.03
2017-08-26T08:15:08.357Z,956.2
2017-08-26T08:16:08.352Z,956.31
2017-08-26T08:17:08.350Z,956.27
2017-08-26T08:18:08.346Z,956.26
2017-08-26T08:19:08.342Z,956.26
2017-08-26T08:20:08.342Z,956.2
2017-08-26T08:21:08.338Z,956.21
2017-08-26T08:22:08.334Z,956.17
2017-08-26T08:23:08.331Z,956.09
2017-08-26T08:24:08.329Z,956.05
2017-08-26T08:25:08.326Z,956
2017-08-26T08:26:08.323Z,955.98
2017-08-26T08:27:08.320Z,956.05
2017-08-26T08:28:08.318Z,955.98
2017-08-26T08:29:08.315Z,955.92
2017-08-26T08:30:08.313Z,955.85
2017-08-26T08:31:08.310Z,955.8
2017-08-26T08:32:08.308Z,955.79
2017-08-26T08:33:08.303Z,955.72
2017-08-26T08:34:08.303Z,955.68
2017-08-26T08:35:08.306Z,955.74
2017-08-26T08:36:08.298Z,955.68
2017-08-26T08:37:08.295Z,955.66
2017-08-26T08:38:08.292Z,955.65
2017-08-26T08:39:08.290Z,955.68
2017-08-26T08:40:08.287Z,955.74
2017-08-26T08:41:08.287Z,955.78
2017-08-26T08:42:08.283Z,955.81
2017-08-26T08:43:08.282Z,955.89
2017-08-26T08:44:08.279Z,955.92
2017-08-26T08:45:08.279Z,955.96
2017-08-26T08:46:08.276Z,955.96
2017-08-26T08:47:08.273Z,955.97
2017-08-26T08:48:08.273Z,956.04
2017-08-26T08:49:08.271Z,956.07
2017-08-26T08:50:08.270Z,956.1
2017-08-26T08:51:08.268Z,956.11
2017-08-26T08:52:08.267Z,956.14
2017-08-26T08:53:08.266Z,956.15
2017-08-26T08:54:08.266Z,956.14
2017-08-26T08:55:08.262Z,956.14
2017-08-26T08:56:08.262Z,956.18
2017-08-26T08:57:08.263Z,956.18
2017-08-26T08:58:08.262Z,956.19
2017-08-26T08:59:08.264Z,956.13
2017-08-26T09:00:08.261Z,956.19
2017-08-26T09:01:08.270Z,956.23
2017-08-26T09:02:08.281Z,956.22
2017-08-26T09:03:08.261Z,956.3
2017-08-26T09:04:08.261Z,956.28
2017-08-26T09:05:08.274Z,956.27
2017-08-26T09:06:08.284Z,956.29
2017-08-26T09:07:08.263Z,956.35
2017-08-26T09:08:08.263Z,956.33
2017-08-26T09:09:08.263Z,956.35
2017-08-26T09:10:08.264Z,956.29
2017-08-26T09:11:08.266Z,956.27
2017-08-26T09:12:08.268Z,956.22
2017-08-26T09:13:08.267Z,956.26
2017-08-26T09:14:08.267Z,956.26
2017-08-26T09:15:08.271Z,956.26
2017-08-26T09:16:08.270Z,956.26
2017-08-26T09:17:08.272Z,956.31
2017-08-26T09:18:08.274Z,956.33
2017-08-26T09:19:08.275Z,956.28
2017-08-26T09:20:08.275Z,956.28
2017-08-26T09:21:08.276Z,956.31
2017-08-26T09:22:08.279Z,956.29
2017-08-26T09:23:08.280Z,956.31
2017-08-26T09:24:08.281Z,956.3
2017-08-26T09:25:08.288Z,956.29
2017-08-26T09:26:08.284Z,956.27
2017-08-26T09:27:08.286Z,956.26
2017-08-26T09:28:08.287Z,956.26
2017-08-26T09:29:08.289Z,956.22
2017-08-26T09:30:08.292Z,956.19
2017-08-26T09:31:08.292Z,956.19
2017-08-26T09:32:08.295Z,956.17
2017-08-26T09:33:08.295Z,956.16
2017-08-26T09:34:08.296Z,956.13
2017-08-26T09:35:08.304Z,956.12
2017-08-26T09:36:08.300Z,956.07
2017-08-26T09:37:08.304Z,956.08
2017-08-26T09:38:08.303Z,956.1
2017-08-26T09:39:08.307Z,956.09
2017-08-26T09:40:08.309Z,956.09
2017-08-26T09:41:08.309Z,956.07
2017-08-26T09:42:08.311Z,956.05
2017-08-26T09:43:08.314Z,956.02
2017-08-26T09:44:08.314Z,956.01
2017-08-26T09:45:08.317Z,955.99
2017-08-26T09:46:08.317Z,955.94
2017-08-26T09:47:08.319Z,955.91
2017-08-26T09:48:08.322Z,955.94
2017-08-26T09:49:08.322Z,955.9
2017-08-26T09:50:08.325Z,955.88
2017-08-26T09:51:08.326Z,955.86
2017-08-26T09:52:08.327Z,955.81
2017-08-26T09:53:08.344Z,955.79
2017-08-26T09:54:08.330Z,955.79
2017-08-26T09:55:08.333Z,955.71
2017-08-26T09:56:08.334Z,955.73
2017-08-26T09:57:08.335Z,955.7
2017-08-26T09:58:08.338Z,955.73
2017-08-26T09:59:08.339Z,955.72
2017-08-26T10:00:08.341Z,955.64
2017-08-26T10:01:08.344Z,955.64
2017-08-26T10:02:08.344Z,955.61
2017-08-26T10:03:08.346Z,955.61
2017-08-26T10:04:08.350Z,955.6
2017-08-26T10:05:08.350Z,955.56
2017-08-26T10:06:08.351Z,955.58
2017-08-26T10:07:08.355Z,955.57
2017-08-26T10:08:08.356Z,955.56
2017-08-26T10:09:08.366Z,955.54
2017-08-26T10:10:08.380Z,955.51
2017-08-26T10:11:08.360Z,955.52
2017-08-26T10:12:08.363Z,955.51
2017-08-26T10:13:08.365Z,955.45
2017-08-26T10:14:08.369Z,955.48
2017-08-26T10:15:08.370Z,955.4
2017-08-26T10:16:08.372Z,955.44
2017-08-26T10:17:08.374Z,955.37
2017-08-26T10:18:08.377Z,955.43
2017-08-26T10:19:08.377Z,955.36
2017-08-26T10:20:08.380Z,955.39
2017-08-26T10:21:08.382Z,955.31
2017-08-26T10:22:08.384Z,955.25
2017-08-26T10:23:08.390Z,955.33
2017-08-26T10:24:08.390Z,955.28
2017-08-26T10:25:08.404Z,955.33
2017-08-26T10:26:08.395Z,955.3
2017-08-26T10:27:08.396Z,955.28
2017-08-26T10:28:08.400Z,955.28
2017-08-26T10:29:08.401Z,955.33
2017-08-26T10:30:08.403Z,955.3
2017-08-26T10:31:08.405Z,955.25
2017-08-26T10:32:08.409Z,955.21
2017-08-26T10:33:08.410Z,955.23
2017-08-26T10:34:08.424Z,955.19
2017-08-26T10:35:08.416Z,955.18
2017-08-26T10:36:08.419Z,955.2
2017-08-26T10:37:08.421Z,955.14
2017-08-26T10:38:08.422Z,955.16
2017-08-26T10:39:08.425Z,955.18
2017-08-26T10:40:08.428Z,955.14
2017-08-26T10:41:08.431Z,955.13
2017-08-26T10:42:08.434Z,955.14
2017-08-26T10:43:08.437Z,955.14
2017-08-26T10:44:08.436Z,955.12
2017-08-26T10:45:08.439Z,955.07
2017-08-26T10:46:08.443Z,955.06
2017-08-26T10:47:08.446Z,955.09
2017-08-26T10:48:08.449Z,955.05
2017-08-26T10:49:08.450Z,955.06
2017-08-26T10:50:08.454Z,955.09
2017-08-26T10:51:08.456Z,955.06
2017-08-26T10:52:08.457Z,955.11
2017-08-26T10:53:08.460Z,955.06
2017-08-26T10:54:08.463Z,955.06
2017-08-26T10:55:08.464Z,955.06
2017-08-26T10:56:08.489Z,955.06
2017-08-26T10:57:08.471Z,954.99
2017-08-26T10:58:08.474Z,955.01
2017-08-26T10:59:08.476Z,955.01
2017-08-26T11:00:08.478Z,955.04
2017-08-26T11:01:08.482Z,955.03
2017-08-26T11:02:08.491Z,955
2017-08-26T11:03:08.486Z,954.98
2017-08-26T11:04:08.494Z,955.04
2017-08-26T11:05:08.492Z,954.99
2017-08-26T11:06:08.505Z,955.05
2017-08-26T11:07:08.499Z,954.95
2017-08-26T11:08:08.520Z,954.96
2017-08-26T11:09:08.506Z,954.91
2017-08-26T11:10:08.506Z,954.96
2017-08-26T11:11:08.508Z,955.02
2017-08-26T11:12:08.512Z,954.94
2017-08-26T11:13:08.520Z,954.99
2017-08-26T11:14:08.518Z,954.96
2017-08-26T11:15:08.520Z,954.94
2017-08-26T11:16:08.525Z,954.96
2017-08-26T11:17:08.527Z,955
2017-08-26T11:18:08.530Z,955.05
2017-08-26T11:19:08.534Z,954.96
2017-08-26T11:20:08.536Z,955
2017-08-26T11:21:08.544Z,955.06
2017-08-26T11:22:08.542Z,955.03
2017-08-26T11:23:08.544Z,954.99
2017-08-26T11:24:08.549Z,954.94
2017-08-26T11:25:08.549Z,955
2017-08-26T11:26:08.568Z,954.98
2017-08-26T11:27:08.555Z,954.88
2017-08-26T11:28:08.559Z,954.92
2017-08-26T11:29:08.562Z,954.9
2017-08-26T11:30:08.563Z,954.91
2017-08-26T11:31:08.568Z,954.91
2017-08-26T11:32:08.587Z,955.01
2017-08-26T11:33:08.577Z,954.9
2017-08-26T11:34:08.576Z,954.93
2017-08-26T11:35:08.610Z,954.89
2017-08-26T11:36:08.585Z,954.95
2017-08-26T11:37:08.589Z,954.87
2017-08-26T11:38:08.587Z,954.94
2017-08-26T11:39:08.588Z,954.91
2017-08-26T11:40:08.593Z,954.89
2017-08-26T11:41:08.598Z,954.9
2017-08-26T11:42:08.600Z,954.87
2017-08-26T11:43:08.602Z,954.84
2017-08-26T11:44:08.604Z,954.84
2017-08-26T11:45:08.608Z,954.87
2017-08-26T11:46:08.610Z,954.84
2017-08-26T11:47:08.614Z,954.84
2017-08-26T11:48:08.617Z,954.82
2017-08-26T11:49:08.621Z,954.78
2017-08-26T11:50:08.635Z,954.82
2017-08-26T11:51:08.625Z,954.8
2017-08-26T11:52:08.630Z,954.81
2017-08-26T11:53:08.633Z,954.77
2017-08-26T11:54:08.634Z,954.79
2017-08-26T11:55:08.638Z,954.82
2017-08-26T11:56:08.647Z,954.81
2017-08-26T11:57:08.659Z,954.81
2017-08-26T11:58:08.649Z,954.81
2017-08-26T11:59:08.674Z,954.81
2017-08-26T12:00:08.674Z,954.87
2017-08-26T12:01:08.657Z,954.83
2017-08-26T12:02:08.662Z,954.81
2017-08-26T12:03:08.665Z,954.87
2017-08-26T12:04:08.667Z,954.82
2017-08-26T12:05:08.670Z,954.87
2017-08-26T12:06:08.674Z,954.89
2017-08-26T12:07:08.677Z,954.89
2017-08-26T12:08:08.681Z,954.83
2017-08-26T12:09:08.683Z,954.88
2017-08-26T12:10:08.686Z,954.8
2017-08-26T12:11:08.705Z,954.83
2017-08-26T12:12:08.700Z,954.82
2017-08-26T12:13:08.696Z,954.8
2017-08-26T12:14:08.700Z,954.83
2017-08-26T12:15:08.703Z,954.81
2017-08-26T12:16:08.724Z,954.83
2017-08-26T12:17:08.712Z,954.88
2017-08-26T12:18:08.713Z,954.87
2017-08-26T12:19:08.717Z,954.84
2017-08-26T12:20:08.720Z,954.83
2017-08-26T12:21:08.726Z,954.84
2017-08-26T12:22:08.727Z,954.8
2017-08-26T12:23:08.730Z,954.79
2017-08-26T12:24:08.733Z,954.79
2017-08-26T12:25:08.736Z,954.82
2017-08-26T12:26:08.740Z,954.78
2017-08-26T12:27:08.743Z,954.76
2017-08-26T12:28:08.755Z,954.73
2017-08-26T12:29:08.754Z,954.8
2017-08-26T12:30:08.753Z,954.79
2017-08-26T12:31:08.756Z,954.76